Time;durP1;ratioP1;P1;durP2;ratioP2;P2;SDS_P1;SDS_P2;PMS_P1;PMS_P2;Temp;Humidity;BMP_temperature;BMP_pressure;BME280_temperature;BME280_humidity;BME280_pressure;Samples;Min_cycle;Max_cycle;Signal;HPM_P1;HPM_P2
2023/02/13 00:00:34;;;;;;;15.35;8.20;;;;;;;;;;4985525;28;20026;-76
2023/02/13 00:03:00;;;;;;;15.57;6.95;;;;;;;;;;4985061;28;20401;-82
2023/02/13 00:05:25;;;;;;;12.93;6.80;;;;;;;;;;4988149;28;20036;-79
2023/02/13 00:07:50;;;;;;;13.82;7.68;;;;;;;;;;4987457;28;20061;-81
2023/02/13 00:10:16;;;;;;;13.07;7.53;;;;;;;;;;4986582;28;20019;-81
2023/02/13 00:12:41;;;;;;;15.00;7.40;;;;;;;;;;4988012;28;20288;-81
2023/02/13 00:15:06;;;;;;;14.57;7.85;;;;;;;;;;4986975;28;20026;-81
2023/02/13 00:17:32;;;;;;;14.07;7.70;;;;;;;;;;4986120;28;20393;-66
2023/02/13 00:19:57;;;;;;;15.20;8.52;;;;;;;;;;4987252;28;20046;-72
2023/02/13 00:22:23;;;;;;;17.05;7.72;;;;;;;;;;4993572;28;20054;-74
2023/02/13 00:24:48;;;;;;;14.02;7.63;;;;;;;;;;4984754;28;20363;-71
2023/02/13 00:27:13;;;;;;;15.00;8.77;;;;;;;;;;4987225;28;20027;-72
2023/02/13 00:29:39;;;;;;;15.40;8.00;;;;;;;;;;4985914;28;20104;-72
2023/02/13 00:32:04;;;;;;;18.45;8.63;;;;;;;;;;4983569;28;20060;-72
2023/02/13 00:34:29;;;;;;;15.35;8.95;;;;;;;;;;4987821;28;20023;-72
2023/02/13 00:36:54;;;;;;;14.40;7.15;;;;;;;;;;4988118;28;20022;-82
2023/02/13 00:39:19;;;;;;;13.40;7.50;;;;;;;;;;4985323;28;20125;-77
2023/02/13 00:41:45;;;;;;;15.53;7.93;;;;;;;;;;4984793;28;20337;-79
2023/02/13 00:44:10;;;;;;;16.20;8.70;;;;;;;;;;4986464;28;20883;-78
2023/02/13 00:46:37;;;;;;;14.13;7.68;;;;;;;;;;4986144;28;20804;-76
2023/02/13 00:49:02;;;;;;;16.73;9.43;;;;;;;;;;4986809;28;20030;-79
2023/02/13 00:51:27;;;;;;;17.65;9.68;;;;;;;;;;4987729;28;20109;-79
2023/02/13 00:53:53;;;;;;;18.10;8.23;;;;;;;;;;4993565;28;20018;-76
2023/02/13 00:56:18;;;;;;;12.77;7.50;;;;;;;;;;4987957;28;20277;-73
2023/02/13 00:58:43;;;;;;;19.35;8.73;;;;;;;;;;4990108;28;20302;-71
2023/02/13 01:01:08;;;;;;;19.30;9.25;;;;;;;;;;4983411;28;20034;-70
2023/02/13 01:03:34;;;;;;;15.77;8.30;;;;;;;;;;4987214;28;20061;-70
2023/02/13 01:05:59;;;;;;;14.57;8.77;;;;;;;;;;4985079;28;20030;-70
2023/02/13 01:08:27;;;;;;;16.30;9.03;;;;;;;;;;4984460;28;20293;-70
2023/02/13 01:10:52;;;;;;;20.27;10.43;;;;;;;;;;4982790;28;20312;-71
2023/02/13 01:13:17;;;;;;;17.42;9.50;;;;;;;;;;4984371;28;20022;-68
2023/02/13 01:15:43;;;;;;;16.60;8.77;;;;;;;;;;4985942;28;20034;-81
2023/02/13 01:18:08;;;;;;;17.25;9.00;;;;;;;;;;4987544;28;20571;-79
2023/02/13 01:20:33;;;;;;;16.10;8.95;;;;;;;;;;4985663;28;20462;-81
2023/02/13 01:22:59;;;;;;;16.75;9.18;;;;;;;;;;4985845;28;20284;-81
2023/02/13 01:25:24;;;;;;;16.03;8.77;;;;;;;;;;4993862;28;20035;-81
2023/02/13 01:27:49;;;;;;;16.75;9.18;;;;;;;;;;4988246;28;20301;-82
2023/02/13 01:30:15;;;;;;;20.67;9.57;;;;;;;;;;4984254;28;20497;-79
2023/02/13 01:32:41;;;;;;;17.38;9.45;;;;;;;;;;4985142;28;20839;-72
2023/02/13 01:35:07;;;;;;;19.42;10.10;;;;;;;;;;4985143;28;20024;-72
2023/02/13 01:37:32;;;;;;;15.43;8.95;;;;;;;;;;4983819;28;20143;-73
2023/02/13 01:39:58;;;;;;;17.92;8.55;;;;;;;;;;4988269;28;20026;-71
2023/02/13 01:42:24;;;;;;;16.85;8.32;;;;;;;;;;4988242;28;20036;-73
2023/02/13 01:44:54;;;;;;;18.02;9.52;;;;;;;;;;4987614;28;20030;-74
2023/02/13 01:47:25;;;;;;;20.63;9.23;;;;;;;;;;4986311;28;20026;-73
2023/02/13 01:49:54;;;;;;;20.77;10.80;;;;;;;;;;4985798;28;20073;-76
2023/02/13 01:52:19;;;;;;;17.40;10.27;;;;;;;;;;4988971;28;20026;-73
2023/02/13 01:54:45;;;;;;;19.38;9.82;;;;;;;;;;4988683;28;20034;-73
2023/02/13 01:57:17;;;;;;;20.65;10.18;;;;;;;;;;4997169;28;20134;-73
2023/02/13 01:59:46;;;;;;;20.55;9.57;;;;;;;;;;4989729;28;20018;-73
2023/02/13 02:02:11;;;;;;;18.05;8.93;;;;;;;;;;4989170;28;20038;-73
2023/02/13 02:04:38;;;;;;;19.35;9.52;;;;;;;;;;4989106;28;20572;-73
2023/02/13 02:07:07;;;;;;;21.27;10.30;;;;;;;;;;4988743;28;20034;-72
2023/02/13 02:09:33;;;;;;;20.58;10.18;;;;;;;;;;4995899;28;20122;-71
2023/02/13 02:12:08;;;;;;;18.85;9.70;;;;;;;;;;4985500;28;20033;-76
2023/02/13 02:14:33;;;;;;;19.30;10.27;;;;;;;;;;4987841;28;20022;-79
2023/02/13 02:16:59;;;;;;;17.20;9.50;;;;;;;;;;5000345;28;20038;-77
2023/02/13 02:19:31;;;;;;;23.02;10.77;;;;;;;;;;4969699;28;20439;-77
2023/02/13 02:21:59;;;;;;;17.33;9.25;;;;;;;;;;4987613;28;20034;-77
2023/02/13 02:24:44;;;;;;;18.77;10.25;;;;;;;;;;4987940;28;20030;-77
2023/02/13 02:27:09;;;;;;;19.77;10.15;;;;;;;;;;4988216;28;20022;-68
2023/02/13 02:29:35;;;;;;;20.43;10.47;;;;;;;;;;4997184;28;20060;-73
2023/02/13 02:32:23;;;;;;;23.17;11.23;;;;;;;;;;4988093;28;20424;-72
2023/02/13 02:35:07;;;;;;;18.33;10.15;;;;;;;;;;4997389;28;20046;-72
2023/02/13 02:37:39;;;;;;;17.23;9.73;;;;;;;;;;4995310;28;20796;-72
2023/02/13 02:40:31;;;;;;;18.30;9.75;;;;;;;;;;4988276;28;20030;-73
2023/02/13 02:43:09;;;;;;;20.00;11.13;;;;;;;;;;4985414;28;20409;-72
2023/02/13 02:45:37;;;;;;;19.50;10.02;;;;;;;;;;4986265;28;20073;-67
2023/02/13 02:51:10;;;;;;;21.13;10.27;;;;;;;;;;4986754;28;20496;-67
2023/02/13 02:53:42;;;;;;;20.80;10.47;;;;;;;;;;4990372;28;20116;-67
2023/02/13 02:56:20;;;;;;;20.30;10.38;;;;;;;;;;4988893;28;20029;-67
2023/02/13 03:07:07;;;;;;;24.20;11.93;;;;;;;;;;4987264;28;20053;-72
2023/02/13 03:15:05;;;;;;;18.85;9.95;;;;;;;;;;4990500;28;20074;-71
2023/02/13 03:23:25;;;;;;;23.50;10.88;;;;;;;;;;4982666;28;20043;-76
2023/02/13 03:26:17;;;;;;;23.23;11.02;;;;;;;;;;4974176;28;20042;-75
2023/02/13 03:31:48;;;;;;;21.73;10.10;;;;;;;;;;4986488;28;20011;-76
2023/02/13 03:34:17;;;;;;;21.88;11.43;;;;;;;;;;4999713;28;20048;-76
2023/02/13 03:39:45;;;;;;;24.48;11.75;;;;;;;;;;4991226;28;20041;-71
2023/02/13 03:42:15;;;;;;;20.30;10.90;;;;;;;;;;4984138;28;20113;-77
2023/02/13 03:44:40;;;;;;;20.92;10.23;;;;;;;;;;4993565;28;20026;-77
2023/02/13 03:47:07;;;;;;;16.80;9.70;;;;;;;;;;4986176;28;20492;-79
2023/02/13 03:52:42;;;;;;;21.20;11.45;;;;;;;;;;4987499;28;20038;-78
2023/02/13 04:00:39;;;;;;;20.60;10.55;;;;;;;;;;4985581;28;20077;-79
2023/02/13 04:03:08;;;;;;;23.52;11.73;;;;;;;;;;4985383;28;20038;-79
2023/02/13 04:05:38;;;;;;;25.65;10.77;;;;;;;;;;4995549;28;20027;-79
2023/02/13 04:08:03;;;;;;;23.02;11.45;;;;;;;;;;4985118;28;20399;-81
2023/02/13 04:10:31;;;;;;;22.67;11.25;;;;;;;;;;4991554;28;20030;-78
2023/02/13 04:13:05;;;;;;;23.55;11.40;;;;;;;;;;4986375;28;20121;-80
2023/02/13 04:15:37;;;;;;;24.85;12.45;;;;;;;;;;4989259;28;20054;-74
2023/02/13 04:18:05;;;;;;;24.02;12.15;;;;;;;;;;4985587;28;20053;-78
2023/02/13 04:20:31;;;;;;;20.50;10.93;;;;;;;;;;4993581;28;20021;-73
2023/02/13 04:23:02;;;;;;;24.92;12.55;;;;;;;;;;4989094;28;20042;-71
2023/02/13 04:25:28;;;;;;;23.92;11.55;;;;;;;;;;4987433;28;20129;-72
2023/02/13 04:27:53;;;;;;;20.02;10.27;;;;;;;;;;4992081;28;20065;-71
2023/02/13 04:30:18;;;;;;;22.17;11.47;;;;;;;;;;4987641;28;20109;-71
2023/02/13 04:32:43;;;;;;;24.08;12.00;;;;;;;;;;4985633;28;20672;-73
2023/02/13 04:35:10;;;;;;;24.00;12.80;;;;;;;;;;4989140;28;20484;-70
2023/02/13 04:37:35;;;;;;;22.30;11.80;;;;;;;;;;4997357;28;20025;-73
2023/02/13 04:40:00;;;;;;;22.80;12.10;;;;;;;;;;4992664;28;20022;-71
2023/02/13 04:42:26;;;;;;;24.00;11.30;;;;;;;;;;4986224;28;20293;-72
2023/02/13 04:44:51;;;;;;;24.63;12.82;;;;;;;;;;4987126;28;20277;-71
2023/02/13 04:47:16;;;;;;;21.60;11.80;;;;;;;;;;4985549;28;20030;-73
2023/02/13 04:49:41;;;;;;;21.27;11.50;;;;;;;;;;4988474;28;20276;-72
2023/02/13 04:52:06;;;;;;;24.97;11.50;;;;;;;;;;5006069;28;20278;-73
2023/02/13 04:54:31;;;;;;;21.03;11.47;;;;;;;;;;4986375;28;20273;-79
2023/02/13 04:56:57;;;;;;;22.47;12.07;;;;;;;;;;4988631;28;20282;-79
2023/02/13 04:59:22;;;;;;;23.17;10.80;;;;;;;;;;4983642;28;20281;-81
2023/02/13 05:01:47;;;;;;;24.83;13.43;;;;;;;;;;4984332;28;20385;-80
2023/02/13 05:04:15;;;;;;;21.90;12.23;;;;;;;;;;4981739;28;20030;-80
2023/02/13 05:06:40;;;;;;;27.23;13.27;;;;;;;;;;4983441;28;20325;-79
2023/02/13 05:09:05;;;;;;;27.45;14.00;;;;;;;;;;4988322;28;20038;-80
2023/02/13 05:11:32;;;;;;;22.73;11.50;;;;;;;;;;4984718;28;20266;-75
2023/02/13 05:13:57;;;;;;;24.00;12.70;;;;;;;;;;4985721;28;20277;-74
2023/02/13 05:16:22;;;;;;;21.58;11.43;;;;;;;;;;4986810;28;20038;-76
2023/02/13 05:18:47;;;;;;;26.13;12.70;;;;;;;;;;4986221;28;20178;-73
2023/02/13 05:24:07;;;;;;;21.95;11.45;;;;;;;;;;4918660;28;20135;-75
2023/02/13 05:26:33;;;;;;;22.33;11.95;;;;;;;;;;4986131;28;20139;-74
2023/02/13 05:31:42;;;;;;;24.52;12.60;;;;;;;;;;4984138;28;20485;-72
2023/02/13 05:34:07;;;;;;;21.23;11.33;;;;;;;;;;4993646;28;20076;-78
2023/02/13 05:36:32;;;;;;;24.73;12.37;;;;;;;;;;4993263;28;20368;-78
2023/02/13 05:38:57;;;;;;;25.03;11.97;;;;;;;;;;4994155;28;20270;-79
2023/02/13 05:41:22;;;;;;;22.42;13.02;;;;;;;;;;4996664;28;20272;-80
2023/02/13 05:43:48;;;;;;;24.70;12.30;;;;;;;;;;4989395;28;20128;-79
2023/02/13 05:46:13;;;;;;;21.77;12.67;;;;;;;;;;4991250;28;21031;-79
2023/02/13 05:48:38;;;;;;;25.92;11.90;;;;;;;;;;5000338;28;20297;-78
2023/02/13 05:51:05;;;;;;;24.80;12.27;;;;;;;;;;5004819;28;20018;-78
2023/02/13 05:53:33;;;;;;;21.88;12.20;;;;;;;;;;4992174;28;20046;-80
2023/02/13 05:55:59;;;;;;;24.40;12.35;;;;;;;;;;4987322;28;20695;-78
2023/02/13 05:58:24;;;;;;;21.15;11.65;;;;;;;;;;4993320;28;20030;-80
2023/02/13 06:00:49;;;;;;;23.00;12.02;;;;;;;;;;4994064;28;20027;-79
2023/02/13 06:03:14;;;;;;;24.27;11.98;;;;;;;;;;4996734;28;20121;-79
2023/02/13 06:05:40;;;;;;;22.13;12.05;;;;;;;;;;5003458;28;20022;-78
2023/02/13 06:08:05;;;;;;;23.25;12.38;;;;;;;;;;5005789;28;20026;-74
2023/02/13 06:10:33;;;;;;;23.88;13.60;;;;;;;;;;4994434;28;20030;-75
2023/02/13 06:12:58;;;;;;;26.43;12.50;;;;;;;;;;5011486;28;20033;-75
2023/02/13 06:15:24;;;;;;;24.07;11.97;;;;;;;;;;4995328;28;20281;-78
2023/02/13 06:17:49;;;;;;;26.13;12.52;;;;;;;;;;4992833;28;20270;-76
2023/02/13 06:20:14;;;;;;;23.63;11.95;;;;;;;;;;4995525;28;20466;-76
2023/02/13 06:22:39;;;;;;;28.45;13.95;;;;;;;;;;4999129;28;20112;-77
2023/02/13 06:25:05;;;;;;;26.97;13.67;;;;;;;;;;5008605;28;20030;-79
2023/02/13 06:27:30;;;;;;;28.63;13.88;;;;;;;;;;4992454;28;20289;-74
2023/02/13 06:29:55;;;;;;;25.55;13.13;;;;;;;;;;4989719;28;20018;-76
2023/02/13 06:32:20;;;;;;;26.92;13.63;;;;;;;;;;4996494;28;20029;-72
2023/02/13 06:34:46;;;;;;;26.47;14.30;;;;;;;;;;4995080;28;20031;-73
2023/02/13 06:37:11;;;;;;;28.85;14.52;;;;;;;;;;4997468;28;20364;-72
2023/02/13 06:39:36;;;;;;;30.70;13.90;;;;;;;;;;5001669;28;20511;-74
2023/02/13 06:42:01;;;;;;;31.92;14.45;;;;;;;;;;4995824;28;21057;-72
2023/02/13 06:44:26;;;;;;;26.03;13.47;;;;;;;;;;5008464;28;20081;-79
2023/02/13 06:46:52;;;;;;;23.27;11.90;;;;;;;;;;4998232;28;20312;-71
2023/02/13 06:49:17;;;;;;;29.42;13.68;;;;;;;;;;4996750;28;20300;-76
2023/02/13 06:51:42;;;;;;;25.73;14.40;;;;;;;;;;4993744;28;20034;-70
2023/02/13 06:54:07;;;;;;;27.35;13.68;;;;;;;;;;4984723;28;20271;-71
2023/02/13 06:56:33;;;;;;;34.10;14.57;;;;;;;;;;4984072;28;20568;-70
2023/02/13 06:58:58;;;;;;;33.47;14.43;;;;;;;;;;4992606;28;20772;-73
2023/02/13 07:01:23;;;;;;;31.10;13.27;;;;;;;;;;4989096;28;20741;-71
2023/02/13 07:03:48;;;;;;;34.53;16.23;;;;;;;;;;4988400;28;20038;-77
2023/02/13 07:06:19;;;;;;;25.52;12.98;;;;;;;;;;4985997;28;20637;-75
2023/02/13 07:08:45;;;;;;;27.67;13.50;;;;;;;;;;4986135;28;20026;-78
2023/02/13 07:11:20;;;;;;;28.45;14.02;;;;;;;;;;4992532;28;20091;-74
2023/02/13 07:13:45;;;;;;;35.47;14.38;;;;;;;;;;4982275;28;20062;-75
2023/02/13 07:16:10;;;;;;;34.97;16.50;;;;;;;;;;4987452;28;20042;-76
2023/02/13 07:18:35;;;;;;;29.38;15.40;;;;;;;;;;4991367;28;20030;-78
2023/02/13 07:21:01;;;;;;;30.42;13.55;;;;;;;;;;4986035;28;20478;-80
2023/02/13 07:23:26;;;;;;;27.97;13.83;;;;;;;;;;4987780;28;20146;-72
2023/02/13 07:25:51;;;;;;;34.75;14.73;;;;;;;;;;4983444;28;20368;-68
2023/02/13 07:28:16;;;;;;;27.20;13.07;;;;;;;;;;4985295;28;20073;-71
2023/02/13 07:30:41;;;;;;;39.97;15.70;;;;;;;;;;4984596;28;20304;-72
2023/02/13 07:33:08;;;;;;;29.08;14.40;;;;;;;;;;4988575;28;20305;-69
2023/02/13 07:35:35;;;;;;;31.63;15.40;;;;;;;;;;4985843;28;20069;-68
2023/02/13 07:38:02;;;;;;;32.55;14.93;;;;;;;;;;4983428;28;20031;-78
2023/02/13 07:40:37;;;;;;;24.52;13.85;;;;;;;;;;4970788;28;20038;-72
2023/02/13 07:43:02;;;;;;;31.05;14.85;;;;;;;;;;4988041;28;20394;-71
2023/02/13 07:45:28;;;;;;;29.38;14.70;;;;;;;;;;4984063;28;20026;-71
2023/02/13 07:47:56;;;;;;;35.33;15.27;;;;;;;;;;4986184;28;20022;-74
2023/02/13 07:50:21;;;;;;;26.52;13.60;;;;;;;;;;4992647;28;20450;-73
2023/02/13 07:52:53;;;;;;;29.95;15.45;;;;;;;;;;4985681;28;20022;-72
2023/02/13 07:55:19;;;;;;;31.83;15.38;;;;;;;;;;4983684;28;20039;-73
2023/02/13 07:57:44;;;;;;;30.47;15.43;;;;;;;;;;4986550;28;20026;-79
2023/02/13 08:00:09;;;;;;;35.10;15.40;;;;;;;;;;4986393;28;20348;-72
2023/02/13 08:02:35;;;;;;;41.67;15.75;;;;;;;;;;4985244;28;20376;-74
2023/02/13 08:05:00;;;;;;;30.15;14.77;;;;;;;;;;4984908;28;20049;-73
2023/02/13 08:07:25;;;;;;;31.65;16.15;;;;;;;;;;4986971;28;20026;-69
2023/02/13 08:12:35;;;;;;;34.40;15.82;;;;;;;;;;4984459;28;20364;-70
2023/02/13 08:15:01;;;;;;;36.15;17.52;;;;;;;;;;4984671;28;20014;-72
2023/02/13 08:17:26;;;;;;;27.73;16.08;;;;;;;;;;4984075;28;20486;-72
2023/02/13 08:19:51;;;;;;;33.20;16.42;;;;;;;;;;4988846;28;20305;-76
2023/02/13 08:22:16;;;;;;;31.33;16.63;;;;;;;;;;4991321;28;20088;-73
2023/02/13 08:24:42;;;;;;;36.22;17.17;;;;;;;;;;4984124;28;20470;-76
2023/02/13 08:27:10;;;;;;;32.42;16.60;;;;;;;;;;4984965;28;20096;-75
2023/02/13 08:29:35;;;;;;;38.00;15.20;;;;;;;;;;4985831;28;20077;-72
2023/02/13 08:32:00;;;;;;;41.00;17.67;;;;;;;;;;4985760;28;20022;-75
2023/02/13 08:34:25;;;;;;;43.67;20.77;;;;;;;;;;4984804;28;20269;-78
2023/02/13 08:36:51;;;;;;;35.20;15.40;;;;;;;;;;4982913;28;20281;-73
2023/02/13 08:39:16;;;;;;;29.33;15.52;;;;;;;;;;4989799;28;20014;-70
2023/02/13 08:41:42;;;;;;;26.98;15.63;;;;;;;;;;4982386;28;20943;-69
2023/02/13 08:44:08;;;;;;;28.63;13.93;;;;;;;;;;4983483;28;20127;-71
2023/02/13 08:46:33;;;;;;;30.15;14.85;;;;;;;;;;4982502;28;20026;-71
2023/02/13 08:48:58;;;;;;;27.67;13.37;;;;;;;;;;4987545;28;20670;-72
2023/02/13 08:51:24;;;;;;;27.70;13.87;;;;;;;;;;4989813;28;20702;-72
2023/02/13 08:53:49;;;;;;;26.20;13.75;;;;;;;;;;4995556;28;20684;-74
2023/02/13 08:56:14;;;;;;;22.67;13.35;;;;;;;;;;4989012;28;20065;-74
2023/02/13 08:58:40;;;;;;;24.27;13.40;;;;;;;;;;4989438;28;20053;-77
2023/02/13 09:01:06;;;;;;;30.40;15.15;;;;;;;;;;4986802;28;20018;-70
2023/02/13 09:03:31;;;;;;;21.45;12.05;;;;;;;;;;4986963;28;20030;-73
2023/02/13 09:06:00;;;;;;;27.85;12.27;;;;;;;;;;4989728;28;20018;-75
2023/02/13 09:08:26;;;;;;;24.77;14.18;;;;;;;;;;4986947;28;20030;-72
2023/02/13 09:10:55;;;;;;;22.15;12.63;;;;;;;;;;4991532;28;20129;-70
2023/02/13 09:13:20;;;;;;;20.20;12.47;;;;;;;;;;5012874;23;20080;-76
2023/02/13 09:15:45;;;;;;;21.55;11.95;;;;;;;;;;5006799;28;20052;-77
2023/02/13 09:18:10;;;;;;;22.23;11.30;;;;;;;;;;5009322;28;20526;-75
2023/02/13 09:20:36;;;;;;;23.70;13.77;;;;;;;;;;5026578;28;20284;-65
2023/02/13 09:23:01;;;;;;;21.83;12.10;;;;;;;;;;5027349;28;20299;-67
2023/02/13 09:25:26;;;;;;;20.33;11.87;;;;;;;;;;5027670;28;20276;-79
2023/02/13 09:27:51;;;;;;;19.02;10.95;;;;;;;;;;5023973;28;20286;-72
2023/02/13 09:30:22;;;;;;;19.95;12.43;;;;;;;;;;5027089;28;20021;-73
2023/02/13 09:32:47;;;;;;;19.80;11.52;;;;;;;;;;5026646;28;20112;-71
2023/02/13 09:35:13;;;;;;;18.73;10.57;;;;;;;;;;5030228;28;20100;-71
2023/02/13 09:37:39;;;;;;;18.23;11.10;;;;;;;;;;5026526;28;20049;-74
2023/02/13 09:40:05;;;;;;;17.77;11.23;;;;;;;;;;5030542;28;20029;-71
2023/02/13 09:42:31;;;;;;;14.20;9.45;;;;;;;;;;5027232;28;20030;-76
2023/02/13 09:44:58;;;;;;;16.65;9.90;;;;;;;;;;5025188;28;20029;-76
2023/02/13 09:47:30;;;;;;;14.73;9.82;;;;;;;;;;5025576;28;20033;-73
2023/02/13 09:49:58;;;;;;;18.98;10.68;;;;;;;;;;5024798;28;20049;-70
2023/02/13 09:52:25;;;;;;;14.65;8.95;;;;;;;;;;5021169;28;20029;-68
2023/02/13 09:54:54;;;;;;;18.48;10.95;;;;;;;;;;5020215;28;20020;-73
2023/02/13 09:57:30;;;;;;;15.05;9.23;;;;;;;;;;5030966;28;20205;-68
2023/02/13 10:00:18;;;;;;;17.92;9.82;;;;;;;;;;5023965;28;20037;-69
2023/02/13 10:02:52;;;;;;;13.00;8.15;;;;;;;;;;5022012;28;20046;-66
2023/02/13 10:05:27;;;;;;;11.80;8.18;;;;;;;;;;5030114;28;20017;-70
2023/02/13 10:08:11;;;;;;;13.68;8.13;;;;;;;;;;5029292;28;20105;-71
2023/02/13 10:10:46;;;;;;;14.32;8.52;;;;;;;;;;5023503;28;20021;-83
2023/02/13 10:13:30;;;;;;;14.18;8.93;;;;;;;;;;5021102;28;20017;-75
2023/02/13 10:16:07;;;;;;;14.70;9.65;;;;;;;;;;5025492;28;20063;-75
2023/02/13 10:18:51;;;;;;;15.13;8.68;;;;;;;;;;5026742;28;20017;-75
2023/02/13 10:21:19;;;;;;;15.50;9.63;;;;;;;;;;5023853;28;20033;-79
2023/02/13 10:23:50;;;;;;;13.02;7.72;;;;;;;;;;5024803;28;20048;-75
2023/02/13 10:26:18;;;;;;;13.23;8.95;;;;;;;;;;5023332;28;20014;-69
2023/02/13 10:30:03;;;;;;;15.85;8.40;;;;;;;;;;5030636;28;20010;-76
2023/02/13 10:31:32;;;;;;;13.48;8.20;;;;;;;;;;5027527;28;20026;-77
2023/02/13 10:33:59;;;;;;;13.88;7.95;;;;;;;;;;5024313;28;20017;-72
2023/02/13 10:36:26;;;;;;;13.25;8.48;;;;;;;;;;5026584;28;20021;-73
2023/02/13 10:38:55;;;;;;;12.40;8.27;;;;;;;;;;5021554;28;20048;-74
2023/02/13 10:41:23;;;;;;;12.87;8.17;;;;;;;;;;5022315;28;20025;-73
2023/02/13 10:44:05;;;;;;;14.13;8.88;;;;;;;;;;5025600;28;20037;-73
2023/02/13 10:46:33;;;;;;;11.55;8.38;;;;;;;;;;5007551;28;20536;-73
2023/02/13 10:49:13;;;;;;;13.85;8.13;;;;;;;;;;5022096;28;20069;-75
2023/02/13 10:51:48;;;;;;;11.75;7.45;;;;;;;;;;5028593;28;20029;-72
2023/02/13 10:54:22;;;;;;;12.60;7.60;;;;;;;;;;5027180;28;20020;-72
2023/02/13 10:56:47;;;;;;;14.52;8.70;;;;;;;;;;5022280;28;20036;-70
2023/02/13 10:59:19;;;;;;;10.60;7.50;;;;;;;;;;5024220;28;20018;-74
2023/02/13 11:01:48;;;;;;;13.48;8.27;;;;;;;;;;5030837;28;20025;-75
2023/02/13 11:04:15;;;;;;;15.48;8.80;;;;;;;;;;5023169;28;20017;-73
2023/02/13 11:06:42;;;;;;;13.85;8.13;;;;;;;;;;5026309;28;20469;-75
2023/02/13 11:09:08;;;;;;;12.35;7.85;;;;;;;;;;5021763;28;20029;-74
2023/02/13 11:11:35;;;;;;;14.18;7.85;;;;;;;;;;5015058;28;20461;-74
2023/02/13 11:14:11;;;;;;;12.82;8.35;;;;;;;;;;5022957;28;20048;-71
2023/02/13 11:16:42;;;;;;;14.27;8.25;;;;;;;;;;5017451;28;20087;-72
2023/02/13 11:19:16;;;;;;;13.75;8.80;;;;;;;;;;5019481;28;20365;-76
2023/02/13 11:21:42;;;;;;;13.73;8.52;;;;;;;;;;5025973;28;20049;-80
2023/02/13 11:24:15;;;;;;;12.75;7.95;;;;;;;;;;5022703;28;20472;-76
2023/02/13 11:26:41;;;;;;;15.55;8.75;;;;;;;;;;5027050;28;20026;-77
2023/02/13 11:29:22;;;;;;;12.38;8.65;;;;;;;;;;5028417;28;20520;-74
2023/02/13 11:32:00;;;;;;;11.23;7.63;;;;;;;;;;5026080;28;20101;-77
2023/02/13 11:34:26;;;;;;;12.15;7.93;;;;;;;;;;5027953;28;20028;-76
2023/02/13 11:36:52;;;;;;;12.68;7.32;;;;;;;;;;5026821;28;20031;-76
2023/02/13 11:39:19;;;;;;;22.58;8.43;;;;;;;;;;5030161;28;20261;-71
2023/02/13 11:41:46;;;;;;;14.93;7.97;;;;;;;;;;5025074;28;20045;-69
2023/02/13 11:44:25;;;;;;;15.60;7.28;;;;;;;;;;5010622;28;20025;-71
2023/02/13 11:46:52;;;;;;;13.35;6.32;;;;;;;;;;5027452;28;20037;-72
2023/02/13 11:49:18;;;;;;;10.45;6.63;;;;;;;;;;5037928;28;20029;-72
2023/02/13 11:51:45;;;;;;;13.68;6.70;;;;;;;;;;5037742;28;20072;-71
2023/02/13 11:54:36;;;;;;;13.52;7.45;;;;;;;;;;5035977;28;20056;-71
2023/02/13 11:57:21;;;;;;;9.88;6.60;;;;;;;;;;5018532;28;20048;-71
2023/02/13 11:59:48;;;;;;;11.98;6.72;;;;;;;;;;5014811;28;20029;-80
2023/02/13 12:02:18;;;;;;;9.55;6.32;;;;;;;;;;5028868;28;20040;-75
2023/02/13 12:04:43;;;;;;;12.13;6.75;;;;;;;;;;5034760;28;20079;-77
2023/02/13 12:07:13;;;;;;;14.35;6.63;;;;;;;;;;5031767;28;20341;-83
2023/02/13 12:09:39;;;;;;;11.35;6.05;;;;;;;;;;5008536;28;20061;-77
2023/02/13 12:12:05;;;;;;;9.77;6.15;;;;;;;;;;5030080;28;20079;-77
2023/02/13 12:14:35;;;;;;;9.65;6.50;;;;;;;;;;5022771;28;20030;-70
2023/02/13 12:17:00;;;;;;;;;;;;;;;;;;5020137;28;20046;-71
2023/02/13 12:19:33;;;;;;;10.52;5.90;;;;;;;;;;5024191;28;19995;-74
2023/02/13 12:22:16;;;;;;;9.38;6.07;;;;;;;;;;5003462;28;20021;-72
2023/02/13 12:24:59;;;;;;;10.35;6.53;;;;;;;;;;5021172;28;20029;-72
2023/02/13 12:27:42;;;;;;;10.02;6.25;;;;;;;;;;5023894;28;20118;-71
2023/02/13 12:30:10;;;;;;;11.15;6.40;;;;;;;;;;5023171;28;20025;-73
2023/02/13 12:32:41;;;;;;;11.20;6.40;;;;;;;;;;5015310;28;20469;-67
2023/02/13 12:35:20;;;;;;;10.98;7.05;;;;;;;;;;5025987;28;20079;-72
2023/02/13 12:37:57;;;;;;;10.48;7.63;;;;;;;;;;5030565;28;20028;-74
2023/02/13 12:40:39;;;;;;;10.40;6.50;;;;;;;;;;5025910;28;20237;-72
2023/02/13 12:43:24;;;;;;;9.23;6.00;;;;;;;;;;5021720;28;20037;-67
2023/02/13 12:45:55;;;;;;;8.90;6.80;;;;;;;;;;5021341;28;20063;-69
2023/02/13 12:48:20;;;;;;;10.20;6.85;;;;;;;;;;5024330;28;20041;-69
2023/02/13 12:51:04;;;;;;;9.47;6.77;;;;;;;;;;5026052;28;20095;-75
2023/02/13 12:53:41;;;;;;;12.60;7.57;;;;;;;;;;5027964;28;20468;-69
2023/02/13 12:56:12;;;;;;;10.57;6.65;;;;;;;;;;5027701;28;20034;-69
2023/02/13 12:58:55;;;;;;;13.55;7.65;;;;;;;;;;5021535;28;20212;-69
2023/02/13 13:01:25;;;;;;;10.70;7.72;;;;;;;;;;5022761;28;20053;-70
2023/02/13 13:04:03;;;;;;;11.98;7.97;;;;;;;;;;5023138;28;20047;-68
2023/02/13 13:06:28;;;;;;;11.40;7.78;;;;;;;;;;5026545;28;20079;-72
2023/02/13 13:08:53;;;;;;;11.27;7.50;;;;;;;;;;5019385;28;20052;-71
2023/02/13 13:11:27;;;;;;;10.90;8.10;;;;;;;;;;5024924;28;20287;-72
2023/02/13 13:14:05;;;;;;;13.43;8.82;;;;;;;;;;5027069;28;20029;-64
2023/02/13 13:16:30;;;;;;;12.57;7.30;;;;;;;;;;5020023;28;20100;-64
2023/02/13 13:19:14;;;;;;;12.57;7.83;;;;;;;;;;5021003;28;20100;-65
2023/02/13 13:21:39;;;;;;;12.00;8.15;;;;;;;;;;5024586;28;20388;-69
2023/02/13 13:24:17;;;;;;;12.43;8.30;;;;;;;;;;5021536;28;20028;-67
2023/02/13 13:26:48;;;;;;;11.45;8.02;;;;;;;;;;5025648;28;20721;-64
2023/02/13 13:29:20;;;;;;;11.40;7.63;;;;;;;;;;5025463;28;20091;-76
2023/02/13 13:31:56;;;;;;;11.13;7.60;;;;;;;;;;5026142;28;20025;-71
2023/02/13 13:34:22;;;;;;;11.50;8.50;;;;;;;;;;5013176;28;20606;-72
2023/02/13 13:37:06;;;;;;;13.68;8.02;;;;;;;;;;5032536;28;20450;-72
2023/02/13 13:39:34;;;;;;;13.65;7.97;;;;;;;;;;5023234;28;20546;-72
2023/02/13 13:42:18;;;;;;;12.65;7.72;;;;;;;;;;5030473;28;20026;-71
2023/02/13 13:45:03;;;;;;;16.00;9.63;;;;;;;;;;5012355;28;20492;-74
2023/02/13 13:47:39;;;;;;;14.48;9.20;;;;;;;;;;5028584;28;20078;-70
2023/02/13 13:50:11;;;;;;;13.85;8.90;;;;;;;;;;5019507;28;20021;-69
2023/02/13 13:52:36;;;;;;;14.43;8.65;;;;;;;;;;5029943;28;20427;-70
2023/02/13 13:55:03;;;;;;;14.07;8.27;;;;;;;;;;5023381;28;20021;-71
2023/02/13 13:57:37;;;;;;;12.45;8.23;;;;;;;;;;5020170;28;20264;-70
2023/02/13 14:00:08;;;;;;;13.02;7.70;;;;;;;;;;5029000;28;20017;-71
2023/02/13 14:02:41;;;;;;;12.75;8.20;;;;;;;;;;5014413;28;20033;-70
2023/02/13 14:05:28;;;;;;;13.60;7.60;;;;;;;;;;5028436;28;20123;-70
2023/02/13 14:07:55;;;;;;;13.88;8.82;;;;;;;;;;5027989;28;20016;-67
2023/02/13 14:10:20;;;;;;;14.57;7.95;;;;;;;;;;5021459;28;20053;-66
2023/02/13 14:12:47;;;;;;;13.83;9.00;;;;;;;;;;5033378;28;20040;-66
2023/02/13 14:15:31;;;;;;;13.98;8.10;;;;;;;;;;5024131;28;20366;-67
2023/02/13 14:17:57;;;;;;;13.45;8.43;;;;;;;;;;5029524;28;20021;-65
2023/02/13 14:20:37;;;;;;;13.18;8.70;;;;;;;;;;5030138;28;20120;-69
2023/02/13 14:23:25;;;;;;;13.27;8.35;;;;;;;;;;5031970;28;20047;-72
2023/02/13 14:26:09;;;;;;;13.02;7.90;;;;;;;;;;5015104;28;20075;-77
2023/02/13 14:28:35;;;;;;;14.30;9.50;;;;;;;;;;5029412;28;20057;-75
2023/02/13 14:31:05;;;;;;;13.63;9.20;;;;;;;;;;5023476;28;20103;-75
2023/02/13 14:33:31;;;;;;;12.43;8.90;;;;;;;;;;5026771;28;20021;-75
2023/02/13 14:36:05;;;;;;;14.32;8.60;;;;;;;;;;5031083;28;20422;-74
2023/02/13 14:38:30;;;;;;;15.60;9.23;;;;;;;;;;5027419;28;20096;-79
2023/02/13 14:40:55;;;;;;;13.77;9.68;;;;;;;;;;5027194;28;20477;-70
2023/02/13 14:43:32;;;;;;;13.18;8.77;;;;;;;;;;5025162;28;20033;-75
2023/02/13 14:46:05;;;;;;;14.63;9.40;;;;;;;;;;5013269;28;20030;-78
2023/02/13 14:48:35;;;;;;;14.18;8.57;;;;;;;;;;5027497;28;20025;-79
2023/02/13 14:51:02;;;;;;;13.25;8.45;;;;;;;;;;5025191;28;20037;-78
2023/02/13 14:53:29;;;;;;;13.30;8.77;;;;;;;;;;5028298;28;20056;-82
2023/02/13 14:55:57;;;;;;;14.95;8.68;;;;;;;;;;5007236;28;20112;-76
2023/02/13 14:58:25;;;;;;;14.27;8.27;;;;;;;;;;5017032;28;20385;-80
2023/02/13 15:01:02;;;;;;;14.90;9.20;;;;;;;;;;5024327;28;20021;-79
2023/02/13 15:03:36;;;;;;;15.10;8.30;;;;;;;;;;5021213;28;20052;-73
2023/02/13 15:06:03;;;;;;;12.57;7.95;;;;;;;;;;5023243;28;20145;-73
2023/02/13 15:08:34;;;;;;;13.85;8.18;;;;;;;;;;5010045;28;20029;-69
2023/02/13 15:10:59;;;;;;;12.35;7.88;;;;;;;;;;5025507;28;20024;-70
2023/02/13 15:13:32;;;;;;;11.90;7.40;;;;;;;;;;5029025;28;20184;-68
2023/02/13 15:16:02;;;;;;;13.35;8.00;;;;;;;;;;5025762;28;20021;-69
2023/02/13 15:18:34;;;;;;;12.73;7.70;;;;;;;;;;5033942;28;20140;-73